Time;durP1;ratioP1;P1;durP2;ratioP2;P2;SDS_P1;SDS_P2;PMS_P1;PMS_P2;Temp;Humidity;BMP_temperature;BMP_pressure;BME280_temperature;BME280_humidity;BME280_pressure;Samples;Min_cycle;Max_cycle;Signal;HPM_P1;HPM_P2
2024/04/12 00:01:01;;;;;;;4.88;2.60;;;13.90;99.90;;;;;;5430843;26;20014;-78
2024/04/12 00:03:27;;;;;;;3.63;1.98;;;13.90;99.90;;;;;;5427076;26;20031;-79
2024/04/12 00:06:05;;;;;;;6.32;2.67;;;13.80;99.90;;;;;;5425617;26;20466;-78
2024/04/12 00:08:31;;;;;;;4.25;2.53;;;13.80;99.90;;;;;;5425428;26;20007;-78
2024/04/12 00:10:59;;;;;;;5.68;2.17;;;13.90;99.90;;;;;;5396662;26;20459;-78
2024/04/12 00:13:26;;;;;;;6.43;2.63;;;13.80;99.90;;;;;;5438891;26;20336;-78
2024/04/12 00:15:55;;;;;;;4.15;1.70;;;13.90;99.90;;;;;;5427655;26;20502;-79
2024/04/12 00:18:28;;;;;;;4.57;2.53;;;13.90;99.90;;;;;;5436111;26;19995;-78
2024/04/12 00:20:58;;;;;;;5.75;2.42;;;14.00;99.90;;;;;;5403631;26;20014;-78
2024/04/12 00:23:26;;;;;;;4.95;2.17;;;14.00;99.90;;;;;;5395903;26;20459;-79
2024/04/12 00:25:55;;;;;;;4.57;2.33;;;14.00;99.90;;;;;;5401929;26;20076;-78
2024/04/12 00:28:22;;;;;;;7.25;3.47;;;14.10;99.90;;;;;;5423395;26;20477;-79
2024/04/12 00:30:48;;;;;;;7.10;2.28;;;14.00;99.90;;;;;;5433516;26;20000;-77
2024/04/12 00:33:18;;;;;;;3.22;1.90;;;14.00;99.90;;;;;;5427425;26;20000;-78
2024/04/12 00:35:49;;;;;;;4.38;2.40;;;14.00;99.90;;;;;;5403668;26;20014;-79
2024/04/12 00:38:16;;;;;;;6.00;2.90;;;14.00;99.90;;;;;;5402655;26;20397;-77
2024/04/12 00:40:45;;;;;;;4.88;2.13;;;14.00;99.90;;;;;;5401029;26;20010;-77
2024/04/12 00:43:15;;;;;;;4.78;2.38;;;14.00;99.90;;;;;;5408171;26;20003;-78
2024/04/12 00:45:52;;;;;;;5.55;2.42;;;14.10;99.90;;;;;;5437575;26;20497;-78
2024/04/12 00:48:21;;;;;;;6.35;3.40;;;14.10;99.90;;;;;;5426032;26;20014;-78
2024/04/12 00:50:47;;;;;;;5.95;2.75;;;14.00;99.90;;;;;;5398436;26;20034;-77
2024/04/12 00:53:13;;;;;;;5.50;2.40;;;14.00;99.90;;;;;;5428060;26;20406;-77
2024/04/12 00:55:39;;;;;;;5.00;2.38;;;14.00;99.90;;;;;;5411235;26;20343;-78
2024/04/12 00:58:09;;;;;;;5.05;3.28;;;14.10;99.90;;;;;;5430551;26;20014;-77
2024/04/12 01:00:35;;;;;;;4.32;2.50;;;14.00;99.90;;;;;;5397925;26;19998;-78
2024/04/12 01:03:05;;;;;;;4.88;2.28;;;14.10;99.90;;;;;;5407897;26;20111;-78
2024/04/12 01:05:35;;;;;;;3.55;2.35;;;14.10;99.90;;;;;;5435944;26;20011;-77
2024/04/12 01:08:01;;;;;;;5.25;2.17;;;14.10;99.90;;;;;;5433205;26;20387;-78
2024/04/12 01:10:30;;;;;;;4.53;2.50;;;14.10;99.90;;;;;;5433231;26;20074;-78
2024/04/12 01:16:29;;;;;;;4.25;2.53;;;14.10;99.90;;;;;;5425938;26;20070;-78
2024/04/12 01:18:55;;;;;;;3.47;1.80;;;14.10;99.90;;;;;;5419161;26;20098;-78
2024/04/12 01:21:28;;;;;;;5.88;2.47;;;14.10;99.90;;;;;;5431041;26;20502;-77
2024/04/12 01:23:54;;;;;;;3.85;2.03;;;14.10;99.90;;;;;;5427689;26;20332;-78
2024/04/12 01:26:20;;;;;;;4.97;1.90;;;14.10;99.90;;;;;;5426226;26;20072;-78
2024/04/12 01:28:48;;;;;;;6.97;1.80;;;14.10;99.90;;;;;;5428742;26;20670;-79
2024/04/12 01:31:15;;;;;;;8.77;2.38;;;14.10;99.90;;;;;;5428002;26;20013;-79
2024/04/12 01:33:41;;;;;;;3.80;2.10;;;14.10;99.90;;;;;;5424979;26;20006;-77
2024/04/12 01:36:10;;;;;;;4.07;2.20;;;14.20;99.90;;;;;;5438307;26;20002;-78
2024/04/12 01:38:37;;;;;;;9.15;2.58;;;14.10;99.90;;;;;;5384435;26;20324;-77
2024/04/12 01:41:08;;;;;;;8.68;2.20;;;14.10;99.90;;;;;;5399665;26;20011;-77
2024/04/12 01:43:38;;;;;;;3.67;2.22;;;14.20;99.90;;;;;;5384204;26;20003;-77
2024/04/12 01:46:04;;;;;;;5.47;2.83;;;14.10;99.90;;;;;;5406919;26;20571;-78
2024/04/12 01:48:33;;;;;;;7.45;2.60;;;14.00;99.90;;;;;;5438338;26;20328;-78
2024/04/12 01:51:02;;;;;;;4.75;1.85;;;14.10;99.90;;;;;;5441000;26;19995;-78
2024/04/12 01:53:29;;;;;;;4.15;2.25;;;14.10;99.90;;;;;;5427818;26;20003;-78
2024/04/12 01:55:55;;;;;;;8.75;3.10;;;14.00;99.90;;;;;;5401076;26;20072;-77
2024/04/12 01:58:20;;;;;;;4.25;2.50;;;14.10;99.90;;;;;;5401304;26;20014;-78
2024/04/12 02:00:47;;;;;;;4.13;2.75;;;14.10;99.90;;;;;;5412394;26;20003;-77
2024/04/12 02:03:13;;;;;;;4.68;2.05;;;14.10;99.90;;;;;;5398458;26;20077;-78
2024/04/12 02:05:39;;;;;;;3.92;2.38;;;14.00;99.90;;;;;;5437511;26;20003;-78
2024/04/12 02:08:10;;;;;;;5.38;2.20;;;14.10;99.90;;;;;;5438572;26;20532;-77
2024/04/12 02:10:41;;;;;;;3.22;2.10;;;14.10;99.90;;;;;;5428512;26;20458;-77
2024/04/12 02:13:10;;;;;;;5.63;2.03;;;14.10;99.90;;;;;;5434640;26;20010;-78
2024/04/12 02:15:36;;;;;;;2.95;2.05;;;14.10;99.90;;;;;;5405283;26;20017;-78
2024/04/12 02:18:04;;;;;;;3.55;1.92;;;14.10;99.90;;;;;;5400538;26;20011;-78
2024/04/12 02:20:36;;;;;;;4.82;2.53;;;14.10;99.90;;;;;;5424189;26;20339;-76
2024/04/12 02:23:05;;;;;;;4.95;1.90;;;14.10;99.90;;;;;;5436181;26;20484;-77
2024/04/12 02:25:37;;;;;;;5.07;1.90;;;14.10;99.90;;;;;;5434777;26;20018;-78
2024/04/12 02:28:07;;;;;;;4.80;2.28;;;14.10;99.90;;;;;;5424008;26;20056;-78
2024/04/12 02:30:41;;;;;;;3.17;1.73;;;14.10;99.90;;;;;;5407007;26;20719;-77
2024/04/12 02:33:16;;;;;;;4.70;2.20;;;14.10;99.90;;;;;;5429951;26;20018;-76
2024/04/12 02:35:42;;;;;;;2.80;1.73;;;14.10;99.90;;;;;;5435005;26;20018;-77
2024/04/12 02:38:15;;;;;;;3.45;1.63;;;14.10;99.90;;;;;;5406002;26;20335;-76
2024/04/12 02:40:42;;;;;;;5.65;2.42;;;14.10;99.90;;;;;;5422430;26;20125;-76
2024/04/12 02:43:10;;;;;;;4.25;2.00;;;14.10;99.90;;;;;;5398401;26;20031;-77
2024/04/12 02:45:36;;;;;;;2.08;1.63;;;14.10;99.90;;;;;;5433660;26;20015;-76
2024/04/12 02:48:03;;;;;;;1.92;1.27;;;14.20;99.90;;;;;;5432115;26;20014;-77
2024/04/12 02:50:29;;;;;;;3.55;2.10;;;14.10;99.90;;;;;;5429467;26;20003;-77
2024/04/12 02:52:54;;;;;;;1.38;1.25;;;14.10;99.90;;;;;;5426798;26;20076;-77
2024/04/12 02:55:21;;;;;;;4.18;1.90;;;14.20;99.90;;;;;;5426144;26;20931;-77
2024/04/12 02:57:46;;;;;;;2.25;1.67;;;14.20;99.90;;;;;;5382868;26;21548;-77
2024/04/12 03:00:25;;;;;;;2.47;1.70;;;14.10;99.90;;;;;;5429527;26;20003;-79
2024/04/12 03:02:52;;;;;;;3.92;1.90;;;14.10;99.90;;;;;;5408083;26;20040;-77
2024/04/12 03:05:18;;;;;;;3.25;1.98;;;14.20;99.90;;;;;;5398425;26;20422;-77
2024/04/12 03:07:45;;;;;;;3.40;1.77;;;14.20;99.90;;;;;;5400926;26;20334;-76
2024/04/12 03:10:12;;;;;;;3.08;2.03;;;14.20;99.90;;;;;;5427912;26;20328;-77
2024/04/12 03:12:43;;;;;;;2.60;2.28;;;14.10;99.90;;;;;;5426004;26;20076;-77
2024/04/12 03:15:10;;;;;;;4.03;2.03;;;14.10;99.90;;;;;;5397356;26;19999;-79
2024/04/12 03:17:37;;;;;;;2.63;1.60;;;14.00;99.90;;;;;;5440466;26;20539;-78
2024/04/12 03:20:03;;;;;;;4.00;2.00;;;14.10;99.90;;;;;;5430200;26;19994;-79
2024/04/12 03:22:30;;;;;;;4.07;2.75;;;14.10;99.90;;;;;;5405275;26;20003;-79
2024/04/12 03:24:56;;;;;;;3.03;1.58;;;14.10;99.90;;;;;;5423378;26;19999;-78
2024/04/12 03:27:21;;;;;;;2.25;1.75;;;14.10;99.90;;;;;;5393333;26;20014;-78
2024/04/12 03:29:49;;;;;;;3.80;2.10;;;14.00;99.90;;;;;;5376952;26;20081;-80
2024/04/12 03:32:15;;;;;;;5.82;2.75;;;14.10;99.90;;;;;;5397524;26;20447;-79
2024/04/12 03:34:40;;;;;;;3.00;1.85;;;14.00;99.90;;;;;;5395427;26;20010;-79
2024/04/12 03:37:23;;;;;;;3.40;2.17;;;14.00;99.90;;;;;;5439689;26;20393;-80
2024/04/12 03:40:00;;;;;;;3.40;2.40;;;14.10;99.90;;;;;;5408814;26;19999;-79
2024/04/12 03:42:28;;;;;;;5.70;2.53;;;14.10;99.90;;;;;;5433585;26;20014;-79
2024/04/12 03:44:56;;;;;;;3.92;2.08;;;14.00;99.90;;;;;;5436998;26;20372;-80
2024/04/12 03:47:25;;;;;;;3.58;2.72;;;14.00;99.90;;;;;;5436029;26;20097;-79
2024/04/12 03:49:52;;;;;;;2.92;2.50;;;14.00;99.90;;;;;;5431651;26;20013;-79
2024/04/12 03:52:20;;;;;;;4.97;2.45;;;14.00;99.90;;;;;;5432080;26;19996;-80
2024/04/12 03:54:46;;;;;;;3.63;1.90;;;14.10;99.90;;;;;;5432073;26;20003;-80
2024/04/12 03:57:12;;;;;;;4.32;2.95;;;14.10;99.90;;;;;;5436041;26;19994;-80
2024/04/12 03:59:56;;;;;;;3.65;2.40;;;14.10;99.90;;;;;;5377758;26;20014;-80
2024/04/12 04:02:22;;;;;;;3.65;2.33;;;14.10;99.90;;;;;;5411582;26;20022;-80
2024/04/12 04:04:48;;;;;;;4.93;2.30;;;14.10;99.90;;;;;;5424319;26;19999;-79
2024/04/12 04:07:19;;;;;;;2.13;1.95;;;14.10;99.90;;;;;;5395093;26;20071;-79
2024/04/12 04:09:45;;;;;;;3.45;2.17;;;14.10;99.90;;;;;;5423735;26;19999;-79
2024/04/12 04:12:14;;;;;;;3.15;2.33;;;14.10;99.90;;;;;;5431911;26;19999;-80
2024/04/12 04:14:47;;;;;;;5.28;2.75;;;14.10;99.90;;;;;;5423699;26;20870;-79
2024/04/12 04:17:13;;;;;;;5.53;2.33;;;14.10;99.90;;;;;;5427502;26;20009;-80
2024/04/12 04:19:39;;;;;;;4.03;2.97;;;14.10;99.90;;;;;;5419592;26;20000;-80
2024/04/12 04:22:20;;;;;;;6.22;3.05;;;14.00;99.90;;;;;;5406143;26;20003;-79
2024/04/12 04:24:46;;;;;;;4.00;2.45;;;14.00;99.90;;;;;;5406814;26;20379;-80
2024/04/12 04:27:12;;;;;;;3.60;2.38;;;14.00;99.90;;;;;;5432829;26;20010;-79
2024/04/12 04:29:37;;;;;;;3.97;2.78;;;14.00;99.90;;;;;;5409258;26;20527;-80
2024/04/12 04:32:03;;;;;;;5.55;3.13;;;14.00;99.90;;;;;;5431531;26;20324;-80
2024/04/12 04:34:29;;;;;;;5.57;3.55;;;14.00;99.90;;;;;;5432595;26;20014;-79
2024/04/12 04:36:57;;;;;;;4.65;2.33;;;14.00;99.90;;;;;;5418901;26;20462;-79
2024/04/12 04:39:23;;;;;;;3.97;2.65;;;13.90;99.90;;;;;;5403549;26;20446;-79
2024/04/12 04:41:50;;;;;;;6.40;3.05;;;13.90;99.90;;;;;;5432511;26;20018;-78
2024/04/12 04:44:16;;;;;;;4.50;3.25;;;13.90;99.90;;;;;;5431563;26;20447;-79
2024/04/12 04:46:50;;;;;;;3.70;2.15;;;13.90;99.90;;;;;;5427868;26;20052;-79
2024/04/12 04:49:19;;;;;;;14.05;2.50;;;13.80;99.90;;;;;;5404397;26;20121;-78
2024/04/12 04:51:45;;;;;;;4.20;2.65;;;13.80;99.90;;;;;;5396413;26;20014;-79
2024/04/12 04:54:11;;;;;;;5.95;3.22;;;13.80;99.90;;;;;;5434776;26;20002;-79
2024/04/12 04:56:46;;;;;;;5.18;2.45;;;13.80;99.90;;;;;;5430339;26;20017;-79
2024/04/12 04:59:28;;;;;;;4.93;2.92;;;13.90;99.90;;;;;;5427118;26;20049;-79
2024/04/12 05:01:54;;;;;;;4.97;3.47;;;13.80;99.90;;;;;;5393303;26;20003;-79
2024/04/12 05:04:20;;;;;;;4.47;2.42;;;13.80;99.90;;;;;;5434520;26;20107;-80
2024/04/12 05:06:47;;;;;;;4.32;3.08;;;13.80;99.90;;;;;;5405810;26;20525;-79
2024/04/12 05:09:13;;;;;;;3.08;2.40;;;13.90;99.90;;;;;;5397982;26;20018;-79
2024/04/12 05:11:39;;;;;;;4.10;2.20;;;13.70;99.90;;;;;;5397100;26;20038;-79
2024/04/12 05:14:14;;;;;;;4.28;2.92;;;13.90;99.90;;;;;;5374017;26;20092;-79
2024/04/12 05:16:42;;;;;;;9.45;4.88;;;13.90;99.90;;;;;;5429603;26;20035;-79
2024/04/12 05:19:14;;;;;;;5.28;3.10;;;13.80;99.90;;;;;;5407072;26;20003;-79
2024/04/12 05:21:44;;;;;;;4.72;3.67;;;13.80;99.90;;;;;;5428894;26;19999;-79
2024/04/12 05:24:10;;;;;;;8.88;4.32;;;13.80;99.90;;;;;;5407875;26;20431;-79
2024/04/12 05:26:41;;;;;;;10.48;4.95;;;13.80;99.90;;;;;;5424735;26;20011;-79
2024/04/12 05:29:09;;;;;;;8.40;5.18;;;13.80;99.90;;;;;;5433178;26;19999;-80
2024/04/12 05:31:34;;;;;;;7.82;3.85;;;13.80;99.90;;;;;;5435368;26;20323;-79
2024/04/12 05:34:04;;;;;;;6.03;3.05;;;13.70;99.90;;;;;;5427459;26;20011;-80
2024/04/12 05:36:32;;;;;;;5.32;3.17;;;13.80;99.90;;;;;;5423818;26;20014;-79
2024/04/12 05:39:08;;;;;;;9.48;5.97;;;13.80;99.90;;;;;;5436107;26;20015;-80
2024/04/12 05:41:35;;;;;;;9.30;4.97;;;13.80;99.90;;;;;;5432664;26;21296;-78
2024/04/12 05:44:01;;;;;;;4.55;3.50;;;13.80;99.90;;;;;;5428791;26;20653;-78
2024/04/12 05:46:28;;;;;;;5.82;3.55;;;13.80;99.90;;;;;;5433372;26;20000;-77
2024/04/12 05:48:53;;;;;;;5.18;4.10;;;13.80;99.90;;;;;;5364720;26;20003;-79
2024/04/12 05:51:19;;;;;;;7.30;4.05;;;13.90;99.90;;;;;;5437973;26;20348;-78
2024/04/12 05:53:51;;;;;;;6.30;3.75;;;13.90;99.90;;;;;;5408884;26;20004;-79
2024/04/12 05:56:25;;;;;;;9.90;6.28;;;13.90;99.90;;;;;;5397413;26;20435;-78
2024/04/12 05:58:51;;;;;;;6.78;4.07;;;13.90;99.90;;;;;;5375374;26;20008;-78
2024/04/12 06:01:17;;;;;;;5.57;4.22;;;13.90;99.90;;;;;;5400335;26;20006;-79
2024/04/12 06:03:42;;;;;;;8.15;5.38;;;13.90;99.90;;;;;;5427171;26;20003;-78
2024/04/12 06:06:08;;;;;;;5.25;3.70;;;13.90;99.90;;;;;;5426339;26;20362;-78
2024/04/12 06:08:37;;;;;;;8.95;4.05;;;13.90;99.90;;;;;;5437243;26;20010;-78
2024/04/12 06:11:03;;;;;;;5.22;3.70;;;13.90;99.90;;;;;;5429710;26;20525;-78
2024/04/12 06:13:29;;;;;;;7.18;3.55;;;13.90;99.90;;;;;;5433794;26;20015;-78
2024/04/12 06:15:55;;;;;;;5.38;3.90;;;13.90;99.90;;;;;;5430349;26;20030;-77
2024/04/12 06:18:20;;;;;;;9.70;4.40;;;13.90;99.90;;;;;;5399407;26;20014;-78
2024/04/12 06:20:48;;;;;;;5.72;3.45;;;14.00;99.90;;;;;;5403901;26;20362;-78
2024/04/12 06:23:14;;;;;;;7.47;4.97;;;14.00;99.90;;;;;;5401594;26;19999;-78
2024/04/12 06:25:45;;;;;;;6.10;3.55;;;14.00;99.90;;;;;;5404871;26;19999;-79
2024/04/12 06:28:14;;;;;;;8.25;3.13;;;14.00;99.90;;;;;;5434532;26;20011;-79
2024/04/12 06:30:43;;;;;;;5.05;4.43;;;14.00;99.90;;;;;;5398942;26;20031;-78
2024/04/12 06:33:12;;;;;;;6.50;3.70;;;14.00;99.90;;;;;;5438492;26;20013;-78
2024/04/12 06:35:44;;;;;;;5.15;3.08;;;14.00;99.90;;;;;;5438899;26;20472;-78
2024/04/12 06:38:09;;;;;;;6.22;3.15;;;14.00;99.90;;;;;;5375379;26;20003;-77
2024/04/12 06:40:37;;;;;;;4.32;2.90;;;14.10;99.90;;;;;;5435365;26;20003;-78
2024/04/12 06:43:06;;;;;;;5.22;2.88;;;14.00;99.90;;;;;;5409908;26;20331;-77
2024/04/12 06:45:44;;;;;;;6.13;3.00;;;14.10;99.90;;;;;;5430818;26;19999;-78
2024/04/12 06:48:10;;;;;;;6.90;4.57;;;14.00;99.90;;;;;;5426714;26;20003;-78
2024/04/12 06:50:36;;;;;;;6.30;2.80;;;14.10;99.90;;;;;;5376632;26;20076;-78
2024/04/12 06:53:08;;;;;;;6.68;2.97;;;14.10;99.90;;;;;;5429878;26;20007;-77
2024/04/12 06:55:45;;;;;;;6.22;2.60;;;14.10;99.90;;;;;;5409843;26;20943;-77
2024/04/12 06:58:15;;;;;;;4.38;3.22;;;14.10;99.90;;;;;;5432129;26;20010;-77
2024/04/12 07:00:46;;;;;;;5.60;3.08;;;14.20;99.90;;;;;;5401643;26;20011;-76
2024/04/12 07:03:15;;;;;;;4.90;2.90;;;14.20;99.90;;;;;;5436217;26;20455;-77
2024/04/12 07:05:47;;;;;;;3.75;2.45;;;14.30;99.90;;;;;;5436013;26;20014;-77
2024/04/12 07:08:16;;;;;;;4.72;3.20;;;14.30;99.90;;;;;;5382385;26;20039;-77
2024/04/12 07:10:48;;;;;;;6.85;3.17;;;14.40;99.90;;;;;;5427262;26;20029;-78
2024/04/12 07:13:15;;;;;;;3.53;2.63;;;14.40;99.90;;;;;;5426589;26;19999;-77
2024/04/12 07:15:45;;;;;;;5.40;2.40;;;14.40;99.90;;;;;;5421928;26;20540;-77
2024/04/12 07:18:11;;;;;;;4.13;2.88;;;14.40;99.90;;;;;;5410152;26;20006;-77
2024/04/12 07:20:40;;;;;;;5.15;3.22;;;14.50;99.90;;;;;;5410296;26;20339;-77
2024/04/12 07:23:10;;;;;;;6.57;2.42;;;14.60;99.90;;;;;;5423461;26;20043;-76
2024/04/12 07:25:39;;;;;;;7.22;3.22;;;14.60;99.90;;;;;;5426646;26;20460;-77
2024/04/12 07:28:08;;;;;;;6.97;2.80;;;14.60;99.90;;;;;;5428386;26;20452;-77
2024/04/12 07:30:33;;;;;;;3.28;1.80;;;14.70;99.90;;;;;;5407348;26;20018;-77
2024/04/12 07:32:59;;;;;;;4.93;2.75;;;14.70;99.90;;;;;;5426148;26;20527;-78
2024/04/12 07:35:26;;;;;;;3.97;2.83;;;14.90;99.90;;;;;;5411261;26;20051;-77
2024/04/12 07:37:54;;;;;;;3.60;2.90;;;14.90;99.90;;;;;;5428892;26;20412;-77
2024/04/12 07:40:19;;;;;;;4.82;2.38;;;15.10;99.90;;;;;;5428913;26;20472;-76
2024/04/12 07:42:48;;;;;;;4.10;1.77;;;15.30;99.90;;;;;;5433238;26;20042;-76
2024/04/12 07:45:17;;;;;;;3.42;2.40;;;15.30;99.90;;;;;;5430691;26;20330;-77
2024/04/12 07:47:52;;;;;;;4.07;2.33;;;15.30;99.90;;;;;;5430453;26;20080;-77
2024/04/12 07:50:29;;;;;;;3.30;2.00;;;15.60;99.90;;;;;;5432190;26;20014;-76
2024/04/12 07:53:22;;;;;;;3.85;2.55;;;15.80;99.90;;;;;;5432822;26;20436;-76
2024/04/12 07:58:34;;;;;;;2.95;1.95;;;15.80;99.90;;;;;;5433115;26;20015;-77
2024/04/12 08:01:09;;;;;;;4.20;2.22;;;15.90;99.90;;;;;;5426827;26;20073;-77
2024/04/12 08:03:42;;;;;;;3.35;2.00;;;16.20;99.90;;;;;;5404013;26;20077;-77
2024/04/12 08:06:19;;;;;;;4.20;3.03;;;16.40;99.90;;;;;;5428215;26;20006;-78
2024/04/12 08:09:03;;;;;;;5.22;1.85;;;16.40;99.90;;;;;;5426419;26;20545;-77
2024/04/12 08:11:33;;;;;;;5.72;3.45;;;16.40;99.90;;;;;;5431761;26;20003;-78
2024/04/12 08:14:06;;;;;;;4.15;2.70;;;16.30;99.90;;;;;;5408145;26;20405;-77
2024/04/12 08:16:36;;;;;;;3.50;2.78;;;16.40;99.90;;;;;;5428479;26;20330;-78
2024/04/12 08:19:13;;;;;;;3.85;2.50;;;16.60;99.90;;;;;;5427406;26;20014;-78
2024/04/12 08:21:41;;;;;;;4.63;2.80;;;16.70;99.90;;;;;;5402556;26;20004;-77
2024/04/12 08:24:09;;;;;;;4.78;2.97;;;16.70;99.90;;;;;;5405323;26;20003;-79
2024/04/12 08:26:37;;;;;;;6.70;3.42;;;16.70;99.90;;;;;;5406480;26;20413;-79
2024/04/12 08:29:06;;;;;;;3.45;2.78;;;16.80;99.90;;;;;;5428119;26;20019;-79
2024/04/12 08:31:35;;;;;;;4.18;2.17;;;17.30;99.90;;;;;;5404449;26;19998;-78
2024/04/12 08:34:03;;;;;;;5.90;3.63;;;17.00;99.90;;;;;;5403933;26;20022;-78
2024/04/12 08:36:33;;;;;;;6.07;3.33;;;16.80;99.90;;;;;;5428054;26;20011;-78
2024/04/12 08:39:12;;;;;;;2.83;2.08;;;17.00;99.90;;;;;;5408905;26;20083;-78
2024/04/12 08:41:38;;;;;;;5.55;3.00;;;17.50;99.90;;;;;;5401805;26;20000;-79
2024/04/12 08:44:09;;;;;;;4.53;3.30;;;17.50;99.90;;;;;;5432178;26;20015;-78
2024/04/12 08:46:36;;;;;;;8.10;3.70;;;17.30;99.90;;;;;;5403439;26;20077;-79
2024/04/12 08:49:03;;;;;;;6.03;2.92;;;17.10;99.90;;;;;;5436332;26;20412;-79
2024/04/12 08:51:32;;;;;;;8.52;2.78;;;17.20;99.90;;;;;;5436477;26;20010;-78
2024/04/12 08:54:01;;;;;;;5.82;3.40;;;17.20;99.90;;;;;;5375673;26;20015;-79
2024/04/12 08:56:29;;;;;;;3.42;1.85;;;17.40;99.90;;;;;;5402247;26;20079;-78
2024/04/12 08:59:04;;;;;;;6.80;4.13;;;17.20;99.90;;;;;;5427494;26;19999;-79
2024/04/12 09:01:31;;;;;;;6.03;3.45;;;17.40;99.90;;;;;;5405799;26;19995;-78
2024/04/12 09:04:04;;;;;;;6.60;4.30;;;17.60;99.90;;;;;;5438888;26;20010;-78
2024/04/12 09:06:36;;;;;;;5.28;4.00;;;17.80;99.90;;;;;;5404756;26;20473;-79
2024/04/12 09:09:02;;;;;;;6.68;3.03;;;17.90;99.90;;;;;;5437693;26;20393;-79
2024/04/12 09:11:31;;;;;;;2.90;1.80;;;18.40;99.90;;;;;;5428698;26;20011;-79
2024/04/12 09:13:56;;;;;;;5.70;3.10;;;18.70;99.90;;;;;;5432712;26;20083;-78
2024/04/12 09:16:23;;;;;;;6.00;2.65;;;18.80;99.90;;;;;;5421434;26;20015;-78
2024/04/12 09:18:51;;;;;;;6.68;3.00;;;18.80;99.90;;;;;;5431156;26;20017;-78
2024/04/12 09:21:36;;;;;;;3.75;2.70;;;18.90;99.90;;;;;;5408868;26;19995;-78
2024/04/12 09:24:09;;;;;;;4.82;2.55;;;18.80;99.90;;;;;;5426067;26;20025;-77
2024/04/12 09:26:55;;;;;;;4.85;3.47;;;18.30;99.90;;;;;;5405471;26;20029;-78
2024/04/12 09:29:26;;;;;;;5.33;3.30;;;18.50;99.90;;;;;;5434808;26;20015;-78
2024/04/12 09:34:41;;;;;;;3.80;2.72;;;18.60;99.90;;;;;;5433528;26;20144;-77
2024/04/12 09:45:22;;;;;;;12.25;4.68;;;19.10;99.90;;;;;;5428922;26;20469;-78
2024/04/12 10:37:48;;;;;;;5.78;3.20;;;19.70;99.90;;;;;;5405523;26;20167;-80
2024/04/12 10:40:14;;;;;;;5.22;3.35;;;19.50;99.90;;;;;;5381787;26;20672;-80
2024/04/12 10:42:42;;;;;;;6.50;2.75;;;19.70;99.90;;;;;;5407534;26;20761;-78
2024/04/12 10:45:08;;;;;;;5.25;2.47;;;19.70;99.90;;;;;;5411128;26;20042;-80
2024/04/12 10:47:39;;;;;;;5.00;3.33;;;19.70;99.90;;;;;;5408384;26;20081;-80
2024/04/12 10:50:05;;;;;;;6.82;2.70;;;19.60;99.90;;;;;;5378163;26;20440;-81
2024/04/12 10:52:30;;;;;;;5.30;3.50;;;19.80;99.90;;;;;;5411387;26;20013;-80
2024/04/12 10:54:57;;;;;;;6.10;4.38;;;19.80;99.90;;;;;;5407906;26;20501;-81
2024/04/12 10:57:27;;;;;;;4.75;3.55;;;19.50;99.90;;;;;;5432480;26;20014;-80
2024/04/12 10:59:53;;;;;;;7.80;3.78;;;20.20;99.90;;;;;;5409755;26;20447;-81
2024/04/12 11:02:19;;;;;;;4.80;2.92;;;20.40;99.90;;;;;;5410566;26;20018;-81
2024/04/12 11:07:32;;;;;;;7.30;3.55;;;20.70;99.90;;;;;;5409186;26;20013;-80
2024/04/12 11:09:58;;;;;;;4.60;2.30;;;21.50;99.90;;;;;;5427108;26;20448;-81
2024/04/12 11:12:39;;;;;;;7.63;3.20;;;21.40;99.90;;;;;;5414078;26;20025;-81
2024/04/12 11:31:52;;;;;;;6.30;3.08;;;21.30;99.90;;;;;;5429157;26;20083;-80
2024/04/12 11:34:25;;;;;;;3.60;2.13;;;22.20;99.90;;;;;;5375132;26;20010;-81
2024/04/12 11:36:53;;;;;;;5.13;2.78;;;22.60;99.90;;;;;;5401577;26;20011;-81
2024/04/12 11:39:25;;;;;;;6.47;2.83;;;23.00;99.90;;;;;;5433779;26;20447;-81
2024/04/12 11:41:51;;;;;;;7.00;3.40;;;22.70;99.90;;;;;;5399141;26;20712;-81
2024/04/12 11:44:20;;;;;;;9.32;4.55;;;22.70;99.90;;;;;;5400230;26;20003;-80
2024/04/12 11:46:48;;;;;;;5.35;2.92;;;22.20;99.90;;;;;;5432361;26;20013;-81
2024/04/12 11:49:16;;;;;;;4.63;2.72;;;22.10;99.90;;;;;;5434357;26;19999;-81
2024/04/12 11:51:42;;;;;;;1.73;1.30;;;22.60;99.90;;;;;;5426331;26;20000;-80
2024/04/12 11:54:09;;;;;;;2.70;2.22;;;21.80;99.90;;;;;;5401048;26;20014;-81
2024/04/12 11:56:35;;;;;;;7.18;3.17;;;21.70;99.90;;;;;;5434969;26;20475;-81
2024/04/12 11:59:01;;;;;;;5.68;2.63;;;21.80;99.90;;;;;;5398569;26;20010;-82
2024/04/12 12:01:28;;;;;;;6.20;2.95;;;22.20;99.90;;;;;;5402676;26;20096;-82
2024/04/12 12:03:58;;;;;;;3.28;2.28;;;22.90;99.90;;;;;;5432393;26;20458;-81
2024/04/12 12:06:25;;;;;;;8.73;2.75;;;22.60;99.90;;;;;;5402280;26;20018;-81
2024/04/12 12:08:57;;;;;;;5.05;2.97;;;22.60;99.90;;;;;;5440051;26;20453;-82
2024/04/12 12:11:27;;;;;;;5.72;1.92;;;23.40;99.90;;;;;;5411218;26;20055;-81
2024/04/12 12:13:53;;;;;;;5.93;2.63;;;23.60;99.90;;;;;;5405307;26;20035;-81
2024/04/12 12:16:19;;;;;;;11.95;2.95;;;23.30;99.90;;;;;;5410070;26;20014;-82
2024/04/12 12:18:45;;;;;;;6.13;2.58;;;23.20;99.90;;;;;;4682230;26;10000672;-81
2024/04/12 12:21:11;;;;;;;5.22;1.95;;;23.20;99.90;;;;;;5411388;26;20008;-81
2024/04/12 12:23:44;;;;;;;4.10;2.47;;;23.60;99.90;;;;;;5426692;26;20006;-81
2024/04/12 12:26:09;;;;;;;4.20;1.63;;;24.40;99.90;;;;;;5427608;26;20004;-81
2024/04/12 12:28:35;;;;;;;8.40;1.90;;;24.20;99.90;;;;;;5375997;26;20006;-80
2024/04/12 12:31:01;;;;;;;2.38;1.85;;;24.30;99.50;;;;;;5426202;26;20003;-81
2024/04/12 12:33:32;;;;;;;4.78;1.50;;;24.40;99.90;;;;;;5437216;26;20323;-82
2024/04/12 12:35:57;;;;;;;3.97;1.65;;;24.50;99.00;;;;;;5368978;26;20007;-81
2024/04/12 12:38:24;;;;;;;8.65;1.77;;;24.10;99.00;;;;;;5375728;26;20447;-82
2024/04/12 12:40:50;;;;;;;3.83;1.45;;;23.40;99.00;;;;;;5431339;26;20002;-81
2024/04/12 12:43:19;;;;;;;3.55;1.30;;;23.80;99.90;;;;;;5394704;26;20003;-81
2024/04/12 12:45:45;;;;;;;1.05;0.88;;;23.80;99.30;;;;;;5422467;26;20679;-81
2024/04/12 12:48:20;;;;;;;4.82;1.50;;;23.80;98.70;;;;;;5430842;26;20017;-81
2024/04/12 12:50:50;;;;;;;2.92;1.50;;;23.80;99.00;;;;;;5380846;26;20473;-80
2024/04/12 12:53:19;;;;;;;2.65;1.27;;;23.90;99.20;;;;;;5408408;26;20352;-81
2024/04/12 12:55:48;;;;;;;4.03;1.00;;;23.90;98.60;;;;;;5436214;26;20457;-81
2024/04/12 12:58:18;;;;;;;4.32;1.20;;;23.90;98.20;;;;;;5426980;26;20348;-81
2024/04/12 13:00:44;;;;;;;4.15;1.50;;;23.90;97.60;;;;;;5408483;26;19999;-80
2024/04/12 13:03:29;;;;;;;1.85;1.23;;;23.90;98.80;;;;;;5434284;26;20013;-81
2024/04/12 13:05:55;;;;;;;1.83;1.10;;;24.50;98.80;;;;;;5408457;26;20015;-81
2024/04/12 13:08:21;;;;;;;2.40;0.90;;;24.60;98.10;;;;;;5439520;26;20072;-81
2024/04/12 13:10:53;;;;;;;2.55;1.23;;;24.50;97.50;;;;;;5429097;26;20458;-81
2024/04/12 13:13:21;;;;;;;2.78;1.40;;;24.20;97.10;;;;;;5431654;26;20334;-80
2024/04/12 13:15:54;;;;;;;4.45;1.50;;;24.30;97.20;;;;;;5410860;26;20016;-80
2024/04/12 13:18:31;;;;;;;2.80;1.48;;;24.20;96.90;;;;;;5408573;26;20002;-80
2024/04/12 13:20:57;;;;;;;1.80;1.27;;;23.90;96.70;;;;;;5424977;26;20616;-81
2024/04/12 13:23:26;;;;;;;5.65;1.00;;;23.50;97.10;;;;;;5408545;26;20046;-79
2024/04/12 13:25:55;;;;;;;2.50;1.58;;;23.90;97.00;;;;;;5436486;26;20356;-80
2024/04/12 13:28:21;;;;;;;3.15;1.38;;;24.40;96.60;;;;;;5400815;26;19996;-79
2024/04/12 13:30:47;;;;;;;1.77;1.27;;;24.50;97.60;;;;;;5405012;26;20020;-79
2024/04/12 13:33:14;;;;;;;5.82;2.03;;;24.70;97.40;;;;;;5435469;26;20028;-79
2024/04/12 13:35:40;;;;;;;4.63;2.08;;;24.90;97.00;;;;;;5421874;26;19995;-80
2024/04/12 13:38:12;;;;;;;5.50;2.03;;;24.70;96.50;;;;;;5437735;26;19991;-79
2024/04/12 13:40:45;;;;;;;2.67;1.52;;;24.60;96.80;;;;;;5385195;26;19995;-79
2024/04/12 13:43:13;;;;;;;2.45;1.20;;;24.60;96.40;;;;;;5416926;26;20046;-78
2024/04/12 13:51:19;;;;;;;2.45;1.05;;;24.30;96.60;;;;;;5438960;26;20384;-82
2024/04/12 13:53:45;;;;;;;2.95;1.67;;;24.00;95.40;;;;;;5431021;26;20011;-82
2024/04/12 13:56:19;;;;;;;2.67;1.20;;;23.70;95.90;;;;;;5429181;26;19995;-84
2024/04/12 13:59:10;;;;;;;5.70;1.67;;;23.50;96.50;;;;;;5425588;26;20788;-84
2024/04/12 14:01:40;;;;;;;2.78;1.02;;;23.40;96.70;;;;;;5051365;26;10000119;-83
2024/04/12 14:04:09;;;;;;;2.88;1.33;;;23.20;96.40;;;;;;5429984;26;20017;-84
2024/04/12 14:06:35;;;;;;;4.35;1.67;;;23.20;96.60;;;;;;5404258;26;20019;-82
2024/04/12 14:09:02;;;;;;;4.57;2.00;;;23.10;97.00;;;;;;5434905;26;20465;-83
2024/04/12 14:11:28;;;;;;;4.15;1.83;;;23.30;97.00;;;;;;5405611;26;19999;-84
2024/04/12 14:13:54;;;;;;;3.78;1.55;;;23.40;96.40;;;;;;5406478;26;20014;-84
2024/04/12 14:16:28;;;;;;;5.57;1.67;;;23.70;97.40;;;;;;5395953;26;20360;-84
2024/04/12 14:18:55;;;;;;;4.10;1.40;;;23.60;96.80;;;;;;5400993;26;19999;-83
2024/04/12 14:21:21;;;;;;;5.47;1.30;;;23.20;96.20;;;;;;5428174;26;19995;-81
2024/04/12 14:23:47;;;;;;;1.65;1.25;;;23.20;96.30;;;;;;5394153;26;20036;-82
2024/04/12 14:26:12;;;;;;;3.35;1.30;;;23.40;96.40;;;;;;5377905;26;20006;-83